Estación Meteorológica Peña el Pijo (Robertgarden) [ 11/19/17 19:00:51 CET ]

Fecha Hora Presion(HPa) Temp (°C) Humedad % Rocio (°C) Viento ( m/s) Direccion Lluvia 1Hora(mm) Lluvia 24H(mm) LLuvia Total(mm)
2017-Apr-25 01:01:49 1006.400 10.8 78 7.1       0.51 1358.19
2017-Apr-25 02:01:35 1006.300 10.9 79 7.4       0.51 1358.19
2017-Apr-25 03:05:12 1005.800 10.7 80 7.4       0.51 1358.19
2017-Apr-25 04:01:14 1005.400 10.9 81 7.8       0.51 1358.19
2017-Apr-25 05:01:23 1004.800 10.9 82 7.9       0.51 1358.19
2017-Apr-25 06:01:19 1004.600 10.7 83 7.9       0.51 1358.19
2017-Apr-25 07:01:21 1004.500 10.6 84 7.9     0.51 1.03 1358.71
2017-Apr-25 08:01:33 1004.600 10.5 85 8.0       1.03 1358.71
2017-Apr-25 09:01:46 1004.900 11.3 86 9.0       1.03 1358.71
2017-Apr-25 10:01:35 1004.500 13.6 87 11.5       1.03 1358.71
2017-Apr-25 11:01:48 1004.100 19.9 64 12.9       1.03 1358.71
2017-Apr-25 12:01:44 1003.800 23.0 48 11.3       1.03 1358.71
2017-Apr-25 13:01:51 1003.300 24.5 43 11.1       1.03 1358.71
2017-Apr-25 14:01:41 1002.600 23.4 41 9.4       1.03 1358.71
2017-Apr-25 15:01:41 1001.900 22.8 40 8.5       1.03 1358.71
2017-Apr-25 16:01:39 1001.100 22.4 44 9.5       1.03 1358.71
2017-Apr-25 17:01:48 1000.400 21.0 42 7.6       1.03 1358.71
2017-Apr-25 18:01:43 1000.100 23.3 38 8.1       1.03 1358.71
2017-Apr-25 19:01:50 1000.200 21.4 42 7.9       0.51 1358.71
2017-Apr-25 20:01:41 1000.100 19.2 48 7.9       0.51 1358.71
2017-Apr-25 21:01:43 1000.400 16.9 54 7.5       0.51 1358.71
2017-Apr-25 22:01:59 1001.100 15.3 62 8.1       0.51 1358.71
2017-Apr-25 23:01:59 1002.000 14.4 65 7.9       0.51 1358.71

Temperatura Máxima:24°    Temperatura Mínima:10°
Presión Máxima:1006.400 Hpa    Presión Mínima:1000.100 Hpa


Volver